TAF Text Data
IDs:
Format:
Raw Decoded Include METAR

Data at: 0744 UTC 28 Sep 2022

Region: TOP
KATL 280529Z 2806/2912 35009KT P6SM FEW200
  FM281200 02009KT P6SM SCT250
  FM281600 03012G18KT P6SM SCT250


KBOS 280528Z 2806/2912 24008KT P6SM SCT080
  FM281200 26009KT P6SM FEW250
  FM281800 28010KT P6SM SCT050
  FM282000 30010KT P6SM BKN050
  FM290000 33007KT P6SM BKN100
  FM290600 34008KT P6SM SCT140


KBWI 280520Z 2806/2912 27006KT P6SM FEW080
  FM281400 31008G16KT P6SM BKN050
  FM290300 35008G16KT P6SM SCT050


KCLE 280520Z 2806/2912 27009KT P6SM -SHRA BKN035
  FM281000 33010KT P6SM -SHRA OVC025
  FM281900 35012KT P6SM -SHRA OVC035
  FM282300 36009KT P6SM OVC035


KCLT 280531Z 2806/2912 34006KT P6SM BKN250
  FM281400 02011KT P6SM BKN250
  FM290000 03008KT P6SM BKN250
  FM290600 02011KT P6SM BKN250


KCVG 280531Z 2806/2912 33006KT P6SM SKC
  TEMPO 2809/2811 BKN040
  FM281100 30005KT P6SM BKN020
  TEMPO 2811/2815 BKN015
  FM281500 35012KT P6SM BKN035
  FM290000 03006KT P6SM SKC


KDCA 280520Z 2806/2912 32008KT P6SM FEW080
  FM281400 32008G16KT P6SM BKN050
  FM290400 35008G16KT P6SM SCT050


KDEN 280540Z 2806/2912 18011KT P6SM SCT100 BKN150
  FM280800 21010KT P6SM FEW100 SCT150
  FM281400 24006KT P6SM FEW100
  FM281900 01006KT P6SM SCT100
  FM282100 09007KT P6SM SCT100
  FM290100 14008KT P6SM SCT100
  FM290400 20009KT P6SM SKC


KDFW 280520Z 2806/2912 16009KT P6SM SKC

KDTW 280520Z 2806/2912 31007KT P6SM BKN025 OVC050
  FM281600 35008KT P6SM SCT025 BKN035
  FM282100 35010KT P6SM OVC040


KEWR 280531Z 2806/2912 26007KT P6SM FEW050
  FM281400 29011KT P6SM FEW050 SCT250
  FM281600 30011G18KT P6SM SCT050 SCT250
  FM281800 31012G19KT P6SM SCT050 SCT250
  FM282300 33011KT P6SM SCT050 SCT250
  FM290200 34014G21KT P6SM FEW050 SCT250


KFLL 280528Z 2806/2912 12022G30KT 6SM -RA SCT025 OVC070
  FM281000 15020G35KT 2SM +RA VCTS SCT010CB BKN030 OVC060
  FM281800 17025G40KT 5SM RA VCTS SCT020CB BKN050 OVC070


KIAD 280520Z 2806/2912 30006KT P6SM FEW080
  FM281400 32008G16KT P6SM BKN050
  FM290300 35008G16KT P6SM SCT050


KIAH 280520Z 2806/2912 VRB04KT P6SM SKC
  FM281500 07009KT P6SM SKC
  FM290300 04005KT P6SM SKC


KJFK 280531Z 2806/2912 27011KT P6SM FEW050
  FM281700 31012G18KT P6SM SCT050 SCT250
  FM282300 33009KT P6SM SCT050 SCT250
  FM290200 35012G19KT P6SM FEW050 SCT250


KLAS 280520Z 2806/2912 20006KT P6SM SCT150
  FM281900 10007KT P6SM FEW120
  FM282200 18010KT P6SM VCTS SCT120CB BKN200
  FM290200 19006KT P6SM SCT150


KLAX 280534Z 2806/2912 VRB03KT P6SM SKC
  FM281300 VRB03KT 5SM BR SCT005
  FM281600 26006KT P6SM SKC
  FM282000 26012KT P6SM SKC
  FM290300 30006KT P6SM SKC
  FM290600 VRB03KT P6SM SKC
  FM291100 VRB03KT 4SM BR OVC008


KLGA 280531Z 2806/2912 27010KT P6SM FEW050
  FM281700 31012G18KT P6SM SCT050 SCT250
  FM282300 33009KT P6SM SCT050 SCT250
  FM290200 35013G20KT P6SM FEW050 SCT250


KMCO 280521Z 2806/2912 07010KT P6SM SHRA FEW020 FEW110 BKN130
  FM281000 06012KT 4SM SHRA SCT025
  TEMPO 2811/2815 06012G20KT 2SM TSRA BKN015CB
  FM281500 05018G25KT 2SM TSRA BKN015CB
  TEMPO 2816/2818 1/2SM TSRA BKN010CB
  FM281900 05020G30KT 2SM TSRA BKN015CB
  FM290000 04030G45KT 2SM TSRA BKN015CB


KMDW 280539Z 2806/2912 33010KT P6SM FEW030 BKN060
  FM281600 02011KT P6SM SCT025 BKN035
  FM290400 01004KT P6SM SCT025


KMEM 280520Z 2806/2912 00000KT P6SM SKC
  FM281400 04010KT P6SM SKC
  FM281700 03015G22KT P6SM SKC
  FM290200 05009KT P6SM SKC


KMIA 280528Z 2806/2912 11012G26KT 5SM RA VCTS SCT010CB BKN020 OVC070
  TEMPO 2806/2808 VRB20G40KT 2SM +RA BKN015
  FM281000 12018G35KT 2SM +RA VCTS SCT010CB BKN030 OVC060
  FM281800 13020G40KT 5SM RA VCTS SCT010CB BKN035 OVC060


KMSP 280520Z 2806/2912 VRB03KT P6SM SKC
  FM281600 15008KT P6SM SKC


KORD 280539Z 2806/2912 33010KT P6SM FEW030 BKN060
  FM281600 02011KT P6SM SCT030 BKN040
  FM290500 VRB03KT P6SM SCT025


KPDX 280520Z 2806/2906 VRB03KT P6SM BKN250
  FM281700 VRB04KT P6SM OVC027
  FM281900 VRB04KT 6SM -RA BR OVC015
  FM282200 17006KT P6SM -RA OVC023
  FM290000 17005KT P6SM -RA BKN040
  FM290500 VRB04KT P6SM -RA BKN029


KPHL 280520Z 2806/2912 28006KT P6SM SKC
  FM281700 31012KT P6SM SCT050
  FM290000 35006KT P6SM FEW060 SCT250


KPHX 280520Z 2806/2912 09007KT P6SM FEW120 FEW250
  FM281600 11012G21KT P6SM FEW120 FEW150
  FM290000 18010KT P6SM SCT120 BKN200
  FM290500 12008KT P6SM SCT120 SCT250


KPIT 280520Z 2806/2912 25005KT P6SM SCT040
  FM281000 24005KT P6SM BKN025
  FM281200 25005KT P6SM VCSH BKN015
  FM281800 31010KT P6SM VCSH BKN035
  FM282100 34007KT P6SM SCT035


KSAN 280303Z 2803/2906 VRB04KT P6SM FEW005
  FM281000 VRB04KT 6SM BR BKN006
  FM281600 27005KT P6SM SCT009
  FM281900 28010KT P6SM SCT150
  FM290300 VRB04KT P6SM FEW200


KSEA 280531Z 2806/2912 20006KT P6SM BKN150
  FM280900 19004KT P6SM SCT025 BKN070
  FM281400 18004KT P6SM OVC020
  FM281800 21005KT P6SM VCSH BKN035 OVC060
  FM282200 23007KT P6SM VCSH BKN050 OVC080
  FM290800 VRB03KT P6SM BKN050


KSFO 280539Z 2806/2912 28013KT P6SM FEW008
  FM280800 29009KT P6SM FEW006 SCT012
  FM281800 31009KT P6SM FEW012
  FM282100 29014KT P6SM FEW012
  FM282300 29019G24KT P6SM FEW012 FEW250
  FM290500 28013KT P6SM FEW010 SCT250


KSLC 280527Z 2806/2912 15006KT P6SM FEW140 SCT180
  FM281700 18012G24KT P6SM VCSH FEW100 SCT120 BKN150
  FM290100 16010KT P6SM BKN080 OVC100
  FM290500 15006KT P6SM BKN130 BKN180


KSTL 280520Z 2806/2912 04005KT P6SM SKC
  FM281400 03010KT P6SM SKC
  FM290000 06006KT P6SM SKC


KTPA 280539Z 2806/2912 04014G22KT 6SM -RA SCT005 BKN010 OVC030
  FM281200 04018G28KT 4SM -RA BR SCT005 BKN010 OVC030
  FM281800 04022G32KT 3SM RA BR SCT005 BKN010 OVC030
  FM290000 02030G45KT 3SM RA BR SCT005 BKN010 OVC030
  FM290600 34028G40KT 3SM RA BR SCT005 BKN010 OVC030